createdAt,value
2022-09-05T00:00:11.627Z,9.65
2022-09-05T00:02:49.239Z,17.88
2022-09-05T00:05:32.474Z,6.32
2022-09-05T00:08:15.526Z,13.23
2022-09-05T00:11:39.321Z,14.05
2022-09-05T00:13:36.556Z,8.90
2022-09-05T00:16:22.329Z,7.47
2022-09-05T00:24:25.114Z,17.42
2022-09-05T00:24:30.375Z,10.55
2022-09-05T00:25:32.344Z,9.25
2022-09-05T00:28:27.219Z,10.50
2022-09-05T00:31:56.042Z,9.32
2022-09-05T00:34:07.345Z,15.55
2022-09-05T00:36:54.854Z,15.55
2022-09-05T00:39:24.248Z,13.85
2022-09-05T00:41:53.029Z,12.43
2022-09-05T00:44:21.487Z,15.45
2022-09-05T00:46:57.293Z,13.55
2022-09-05T00:49:37.553Z,16.00
2022-09-05T00:52:11.305Z,14.45
2022-09-05T00:54:57.386Z,9.60
2022-09-05T00:57:43.357Z,7.60
2022-09-05T01:00:18.593Z,8.00
2022-09-05T01:03:02.866Z,15.15
2022-09-05T01:05:36.170Z,18.25
2022-09-05T01:08:22.244Z,19.58
2022-09-05T01:10:55.489Z,13.75
2022-09-05T01:13:34.666Z,24.52
2022-09-05T01:16:21.007Z,21.48
2022-09-05T01:18:54.240Z,18.67
2022-09-05T01:21:33.957Z,19.17
2022-09-05T01:24:12.278Z,27.27
2022-09-05T01:26:46.024Z,21.05
2022-09-05T01:29:28.709Z,19.45
2022-09-05T01:32:15.530Z,18.00
2022-09-05T01:35:03.430Z,21.88
2022-09-05T01:37:35.884Z,30.52
2022-09-05T01:40:19.949Z,22.67
2022-09-05T01:43:15.937Z,11.70
2022-09-05T01:45:51.878Z,22.17
2022-09-05T01:48:34.161Z,20.63
2022-09-05T01:51:29.367Z,18.60
2022-09-05T01:54:10.166Z,20.67
2022-09-05T01:56:51.221Z,33.80
2022-09-05T01:59:29.719Z,32.72
2022-09-05T02:01:56.995Z,25.40
2022-09-05T02:04:46.086Z,18.83
2022-09-05T02:07:30.857Z,21.45
2022-09-05T02:10:00.113Z,27.17
2022-09-05T02:12:41.091Z,20.35
2022-09-05T02:15:14.325Z,23.33
2022-09-05T02:17:49.423Z,24.42
2022-09-05T02:20:35.283Z,19.08
2022-09-05T02:23:41.816Z,28.70
2022-09-05T02:26:12.289Z,14.15
2022-09-05T02:28:45.148Z,16.92
2022-09-05T02:31:19.660Z,13.77
2022-09-05T02:33:53.649Z,17.73
2022-09-05T02:36:40.930Z,29.25
2022-09-05T02:44:20.619Z,26.77
2022-09-05T02:45:19.795Z,28.63
2022-09-05T02:45:25.768Z,19.48
2022-09-05T02:47:53.741Z,17.83
2022-09-05T02:57:18.921Z,19.38
2022-09-05T02:57:28.901Z,21.70
2022-09-05T02:57:32.671Z,24.85
2022-09-05T02:59:12.909Z,28.88
2022-09-05T03:01:42.770Z,23.30
2022-09-05T03:04:19.314Z,26.45
2022-09-05T03:07:06.933Z,33.83
2022-09-05T03:09:39.980Z,17.63
2022-09-05T03:12:28.456Z,21.50
2022-09-05T03:15:02.773Z,26.63
2022-09-05T03:17:49.940Z,27.17
2022-09-05T03:20:17.176Z,28.75
2022-09-05T03:23:03.038Z,19.60
2022-09-05T03:25:53.305Z,30.38
2022-09-05T03:28:20.613Z,28.20
2022-09-05T03:31:07.034Z,16.73
2022-09-05T03:33:59.873Z,18.73
2022-09-05T03:36:29.919Z,19.80
2022-09-05T03:39:03.032Z,18.50
2022-09-05T03:41:43.696Z,19.15
2022-09-05T03:44:14.277Z,23.67
2022-09-05T03:46:41.491Z,18.75
2022-09-05T03:52:42.846Z,24.23
2022-09-05T03:57:20.616Z,15.93
2022-09-05T03:57:26.750Z,20.92
2022-09-05T03:58:42.042Z,19.08
2022-09-05T04:03:09.181Z,19.48
2022-09-05T04:08:15.369Z,28.05
2022-09-05T04:08:19.339Z,18.50
2022-09-05T04:10:21.825Z,17.40
2022-09-05T04:12:58.207Z,25.25
2022-09-05T04:15:46.269Z,17.17
2022-09-05T04:18:28.012Z,14.57
2022-09-05T04:21:10.964Z,19.05
2022-09-05T04:23:50.054Z,12.85
2022-09-05T04:26:23.125Z,17.90
2022-09-05T04:28:53.621Z,14.93
2022-09-05T04:31:31.492Z,14.45
2022-09-05T04:34:04.500Z,17.83
2022-09-05T04:36:33.577Z,18.95
2022-09-05T04:39:09.312Z,9.02
2022-09-05T04:41:56.778Z,18.30
2022-09-05T04:44:28.719Z,15.50
2022-09-05T04:47:04.105Z,16.83
2022-09-05T04:49:34.617Z,22.63
2022-09-05T04:52:30.851Z,17.05
2022-09-05T04:55:10.871Z,19.60
2022-09-05T04:57:47.168Z,11.68
2022-09-05T05:06:00.143Z,15.13
2022-09-05T05:06:09.581Z,12.10
2022-09-05T05:06:10.845Z,15.80
2022-09-05T05:08:41.558Z,14.35
2022-09-05T05:17:55.550Z,11.25
2022-09-05T05:18:06.383Z,21.00
2022-09-05T05:18:07.957Z,9.63
2022-09-05T05:20:39.830Z,10.00
2022-09-05T05:23:14.661Z,14.47
2022-09-05T05:25:52.014Z,10.45
2022-09-05T05:28:28.942Z,11.35
2022-09-05T05:31:01.780Z,9.23
2022-09-05T05:33:39.702Z,11.93
2022-09-05T05:36:09.043Z,13.93
2022-09-05T05:38:40.095Z,8.32
2022-09-05T05:41:29.203Z,12.15
2022-09-05T05:43:57.468Z,11.13
2022-09-05T05:46:30.529Z,12.52
2022-09-05T05:49:05.127Z,7.65
2022-09-05T05:52:02.083Z,8.52
2022-09-05T05:55:33.997Z,8.93
2022-09-05T05:57:58.885Z,9.00
2022-09-05T06:00:51.461Z,9.60
2022-09-05T06:03:36.609Z,10.57
2022-09-05T06:06:21.826Z,9.15
2022-09-05T06:14:42.807Z,9.80
2022-09-05T06:15:02.808Z,11.68
2022-09-05T06:15:22.022Z,8.35
2022-09-05T06:17:55.658Z,9.57
2022-09-05T06:22:08.300Z,8.45
2022-09-05T06:23:34.789Z,9.05
2022-09-05T06:26:13.067Z,13.07
2022-09-05T06:28:56.383Z,9.73
2022-09-05T06:31:35.884Z,8.90
2022-09-05T06:34:32.595Z,6.70
2022-09-05T06:37:12.286Z,7.38
2022-09-05T06:39:53.246Z,7.68
2022-09-05T06:42:42.270Z,7.70
2022-09-05T06:45:29.056Z,9.15
2022-09-05T06:48:04.956Z,3.85
2022-09-05T06:51:07.455Z,3.17
2022-09-05T06:53:32.921Z,7.53
2022-09-05T06:56:06.014Z,11.25
2022-09-05T06:58:57.785Z,6.22
2022-09-05T07:01:52.430Z,5.07
2022-09-05T07:04:51.488Z,6.10
2022-09-05T07:07:06.593Z,11.18
2022-09-05T07:09:49.153Z,6.30
2022-09-05T07:12:23.598Z,16.10
2022-09-05T07:15:10.580Z,12.45
2022-09-05T07:20:34.199Z,2.83
2022-09-05T07:24:07.062Z,9.15
2022-09-05T07:26:49.609Z,5.13
2022-09-05T07:29:06.125Z,5.03
2022-09-05T07:31:39.302Z,6.82
2022-09-05T07:34:25.325Z,7.40
2022-09-05T07:36:57.833Z,8.25
2022-09-05T07:39:45.361Z,9.10
2022-09-05T07:42:16.073Z,5.20
2022-09-05T07:44:51.992Z,7.75
2022-09-05T07:47:24.905Z,6.47
2022-09-05T07:51:27.932Z,3.50
2022-09-05T07:56:52.809Z,1.88
2022-09-05T07:57:04.793Z,7.95
2022-09-05T07:58:41.258Z,8.95
2022-09-05T08:01:13.004Z,7.57
2022-09-05T08:03:41.369Z,6.13
2022-09-05T08:06:12.025Z,9.73
2022-09-05T08:09:21.531Z,3.45
2022-09-05T08:11:48.235Z,3.70
2022-09-05T08:14:45.039Z,4.75
2022-09-05T08:17:11.675Z,3.22
2022-09-05T08:19:42.010Z,4.78
2022-09-05T08:22:13.867Z,7.40
2022-09-05T08:24:48.549Z,7.78
2022-09-05T08:27:21.724Z,4.85
2022-09-05T08:30:24.412Z,4.70
2022-09-05T08:32:46.249Z,5.65
2022-09-05T08:35:16.673Z,5.28
2022-09-05T08:37:44.853Z,4.65
2022-09-05T08:40:21.455Z,5.63
2022-09-05T08:46:37.879Z,5.38
2022-09-05T08:46:43.474Z,5.13
2022-09-05T08:51:12.893Z,7.10
2022-09-05T08:53:58.966Z,6.03
2022-09-05T08:56:32.456Z,3.55
2022-09-05T08:59:31.654Z,7.53
2022-09-05T09:02:17.369Z,5.80
2022-09-05T09:05:01.171Z,5.10
2022-09-05T09:07:47.747Z,4.93
2022-09-05T09:10:30.250Z,4.78
2022-09-05T09:13:13.724Z,3.83
2022-09-05T09:15:41.065Z,5.35
2022-09-05T09:18:11.130Z,8.48
2022-09-05T09:20:47.963Z,6.30
2022-09-05T09:23:30.471Z,9.27
2022-09-05T09:26:15.906Z,6.93
2022-09-05T09:28:50.258Z,5.22
2022-09-05T09:31:37.463Z,8.93
2022-09-05T09:34:04.730Z,4.45
2022-09-05T09:36:50.852Z,9.90
2022-09-05T09:39:37.289Z,3.08
2022-09-05T09:42:08.296Z,4.80
2022-09-05T09:44:58.588Z,4.40
2022-09-05T09:47:41.013Z,4.18
2022-09-05T09:50:14.077Z,3.67
2022-09-05T09:52:50.214Z,5.40
2022-09-05T09:55:40.889Z,7.75
2022-09-05T09:58:17.241Z,7.22
2022-09-05T10:00:51.238Z,5.43
2022-09-05T10:09:03.050Z,3.25
2022-09-05T10:10:47.867Z,3.20
2022-09-05T10:10:53.341Z,4.72
2022-09-05T10:12:52.076Z,3.22
2022-09-05T10:15:38.172Z,4.07
2022-09-05T10:18:07.417Z,6.60
2022-09-05T10:20:53.669Z,5.32
2022-09-05T10:24:00.229Z,7.32
2022-09-05T10:26:36.653Z,3.58
2022-09-05T10:29:34.919Z,5.82
2022-09-05T10:33:43.962Z,3.50
2022-09-05T10:35:15.177Z,2.17
2022-09-05T10:37:52.191Z,7.50
2022-09-05T10:40:22.824Z,3.65
2022-09-05T10:43:00.263Z,2.67
2022-09-05T10:45:51.006Z,5.20
2022-09-05T10:48:27.273Z,2.75
2022-09-05T10:51:00.952Z,4.13
2022-09-05T10:53:41.872Z,8.65
2022-09-05T10:56:13.937Z,3.95
2022-09-05T11:01:48.543Z,4.53
2022-09-05T11:02:22.125Z,6.97
2022-09-05T11:04:55.116Z,4.20
2022-09-05T11:07:36.670Z,4.70
2022-09-05T11:10:03.947Z,7.32
2022-09-05T11:12:34.316Z,3.65
2022-09-05T11:15:06.097Z,4.63
2022-09-05T11:17:36.429Z,8.05
2022-09-05T11:20:35.007Z,5.15
2022-09-05T11:23:10.874Z,4.10
2022-09-05T11:25:41.031Z,3.13
2022-09-05T11:28:20.062Z,2.28
2022-09-05T11:30:51.664Z,3.63
2022-09-05T11:38:43.971Z,2.40
2022-09-05T11:39:54.440Z,4.53
2022-09-05T11:40:07.049Z,5.25
2022-09-05T11:42:34.250Z,2.42
2022-09-05T11:45:19.297Z,7.93
2022-09-05T11:48:05.011Z,4.93
2022-09-05T11:50:38.239Z,2.05
2022-09-05T11:53:24.233Z,7.45
2022-09-05T11:56:09.905Z,3.00
2022-09-05T11:58:44.647Z,5.05
2022-09-05T12:01:41.567Z,3.80
2022-09-05T12:04:17.137Z,4.00
2022-09-05T12:06:49.580Z,6.72
2022-09-05T12:09:23.637Z,4.55
2022-09-05T12:12:32.805Z,2.28
2022-09-05T12:15:11.994Z,6.97
2022-09-05T12:17:53.930Z,2.20
2022-09-05T12:20:22.324Z,4.85
2022-09-05T12:23:03.225Z,6.55
2022-09-05T12:27:36.848Z,3.10
2022-09-05T12:29:32.703Z,4.13
2022-09-05T12:31:29.712Z,6.43
2022-09-05T12:36:11.323Z,3.40
2022-09-05T12:40:54.178Z,4.07
2022-09-05T12:41:36.125Z,2.88
2022-09-05T12:44:36.223Z,5.55
2022-09-05T12:46:23.681Z,6.57
2022-09-05T12:48:51.368Z,1.30
2022-09-05T12:51:45.073Z,4.07
2022-09-05T12:54:24.805Z,6.07
2022-09-05T13:01:20.370Z,3.60
2022-09-05T13:03:01.532Z,4.50
2022-09-05T13:03:14.548Z,4.35
2022-09-05T13:06:03.280Z,5.07
2022-09-05T13:08:39.977Z,3.33
2022-09-05T13:14:47.802Z,2.75
2022-09-05T13:14:54.536Z,6.65
2022-09-05T13:16:50.566Z,1.90
2022-09-05T13:19:28.797Z,5.63
2022-09-05T13:21:57.345Z,2.45
2022-09-05T13:24:27.718Z,4.00
2022-09-05T13:26:57.748Z,4.45
2022-09-05T13:29:26.148Z,7.00
2022-09-05T13:37:59.203Z,3.25
2022-09-05T13:38:01.013Z,1.92
2022-09-05T13:38:03.379Z,3.85
2022-09-05T13:40:32.393Z,5.85
2022-09-05T13:43:12.596Z,3.78
2022-09-05T13:45:53.561Z,4.80
2022-09-05T13:51:43.186Z,3.95
2022-09-05T13:54:32.953Z,2.63
2022-09-05T13:57:06.872Z,3.97
2022-09-05T13:59:40.747Z,3.45
2022-09-05T14:02:25.760Z,2.83
2022-09-05T14:05:07.127Z,2.45
2022-09-05T14:07:55.445Z,4.05
2022-09-05T14:10:26.401Z,5.47
2022-09-05T14:13:12.313Z,2.53
2022-09-05T14:15:52.328Z,6.50
2022-09-05T14:18:24.785Z,4.55
2022-09-05T14:21:16.799Z,3.10
2022-09-05T14:23:53.843Z,2.37
2022-09-05T14:26:24.356Z,3.17
2022-09-05T14:29:02.198Z,1.70
2022-09-05T14:37:41.199Z,5.78
2022-09-05T14:37:52.311Z,4.03
2022-09-05T14:37:55.498Z,3.03
2022-09-05T14:40:29.822Z,4.88
2022-09-05T14:43:17.461Z,3.95
2022-09-05T14:46:07.617Z,3.10
2022-09-05T14:48:39.419Z,3.38
2022-09-05T14:51:25.262Z,5.38
2022-09-05T14:58:09.847Z,5.10
2022-09-05T15:02:42.232Z,3.70
2022-09-05T15:02:57.898Z,2.08
2022-09-05T15:05:13.823Z,1.88
2022-09-05T15:07:42.573Z,3.30
2022-09-05T15:12:14.944Z,3.13
2022-09-05T15:13:19.551Z,6.20
2022-09-05T15:16:01.990Z,7.32
2022-09-05T15:18:32.856Z,4.22
2022-09-05T15:21:33.602Z,4.35
2022-09-05T15:24:17.405Z,2.97
2022-09-05T15:26:51.227Z,4.85
2022-09-05T15:29:30.879Z,3.03
2022-09-05T15:32:13.455Z,4.97
2022-09-05T15:37:26.038Z,1.20
2022-09-05T15:40:21.863Z,4.18
2022-09-05T15:42:51.933Z,3.83
2022-09-05T15:45:28.184Z,2.83
2022-09-05T15:48:01.557Z,4.32
2022-09-05T15:50:28.902Z,5.80
2022-09-05T15:52:56.389Z,4.20
2022-09-05T15:55:24.740Z,4.47
2022-09-05T15:57:54.561Z,3.35
2022-09-05T16:00:34.085Z,5.22
2022-09-05T16:04:38.040Z,7.00
2022-09-05T16:10:30.949Z,3.40
2022-09-05T16:10:33.770Z,7.13
2022-09-05T16:14:39.393Z,2.70
2022-09-05T16:23:13.582Z,2.85
2022-09-05T16:23:24.454Z,1.98
2022-09-05T16:23:34.265Z,5.32
2022-09-05T16:25:52.469Z,6.57
2022-09-05T16:28:27.349Z,1.60
2022-09-05T16:31:02.251Z,7.53
2022-09-05T16:33:32.789Z,4.63
2022-09-05T16:36:02.953Z,5.38
2022-09-05T16:38:49.474Z,5.03
2022-09-05T16:41:24.281Z,4.50
2022-09-05T16:43:57.572Z,7.93
2022-09-05T16:46:40.543Z,4.90
2022-09-05T16:49:14.592Z,6.75
2022-09-05T16:51:44.923Z,5.47
2022-09-05T16:54:19.161Z,5.95
2022-09-05T16:56:48.533Z,2.15
2022-09-05T16:59:27.032Z,5.93
2022-09-05T17:02:11.488Z,3.13
2022-09-05T17:05:04.031Z,5.63
2022-09-05T17:07:51.668Z,2.88
2022-09-05T17:10:20.487Z,5.50
2022-09-05T17:12:51.888Z,2.88
2022-09-05T17:15:31.999Z,6.05
2022-09-05T17:18:22.413Z,8.68
2022-09-05T17:20:54.925Z,4.97
2022-09-05T17:29:24.827Z,14.70
2022-09-05T17:29:30.092Z,5.15
2022-09-05T17:29:36.231Z,3.55
2022-09-05T17:32:00.544Z,2.67
2022-09-05T17:34:44.010Z,3.40
2022-09-05T17:37:18.140Z,3.83
2022-09-05T17:39:48.782Z,10.90
2022-09-05T17:42:30.461Z,3.25
2022-09-05T17:45:05.663Z,4.00
2022-09-05T17:47:36.228Z,5.07
2022-09-05T17:50:18.054Z,3.20
2022-09-05T17:53:26.513Z,5.78
2022-09-05T17:55:54.997Z,7.15
2022-09-05T17:58:24.225Z,5.55
2022-09-05T18:00:51.643Z,4.40
2022-09-05T18:03:40.461Z,4.35
2022-09-05T18:06:18.486Z,5.78
2022-09-05T18:08:45.733Z,6.43
2022-09-05T18:11:25.606Z,6.32
2022-09-05T18:13:54.819Z,3.72
2022-09-05T18:16:42.034Z,6.93
2022-09-05T18:19:34.237Z,10.55
2022-09-05T18:22:08.238Z,7.05
2022-09-05T18:24:41.280Z,9.35
2022-09-05T18:27:43.727Z,2.97
2022-09-05T18:30:24.911Z,7.97
2022-09-05T18:32:54.692Z,2.72
2022-09-05T18:35:41.701Z,5.57
2022-09-05T18:38:17.005Z,6.53
2022-09-05T18:40:52.111Z,6.78
2022-09-05T18:43:19.340Z,11.38
2022-09-05T18:45:52.951Z,9.25
2022-09-05T18:48:28.278Z,10.43
2022-09-05T18:51:12.995Z,7.82
2022-09-05T18:53:47.514Z,8.57
2022-09-05T18:56:21.104Z,10.00
2022-09-05T18:58:52.282Z,8.70
2022-09-05T19:01:32.381Z,9.65
2022-09-05T19:04:02.084Z,11.98
2022-09-05T19:06:34.550Z,10.45
2022-09-05T19:09:08.741Z,10.73
2022-09-05T19:11:36.010Z,7.90
2022-09-05T19:14:26.530Z,12.10
2022-09-05T19:17:07.943Z,6.30
2022-09-05T19:20:28.757Z,5.97
2022-09-05T19:23:11.273Z,10.88
2022-09-05T19:25:44.202Z,8.90
2022-09-05T19:36:44.129Z,14.80
2022-09-05T19:36:53.598Z,11.55
2022-09-05T19:37:08.887Z,8.45
2022-09-05T19:37:29.280Z,15.85
2022-09-05T19:42:48.044Z,13.27
2022-09-05T19:47:27.853Z,6.18
2022-09-05T19:47:50.843Z,10.55
2022-09-05T19:51:16.486Z,8.02
2022-09-05T19:53:54.076Z,9.38
2022-09-05T19:56:34.336Z,3.50
2022-09-05T19:59:01.693Z,6.47
2022-09-05T20:01:29.373Z,4.75
2022-09-05T20:03:56.930Z,11.07
2022-09-05T20:06:30.043Z,8.77
2022-09-05T20:09:17.832Z,11.63
2022-09-05T20:11:49.745Z,13.57
2022-09-05T20:14:30.596Z,13.75
2022-09-05T20:17:01.407Z,13.52
2022-09-05T20:19:34.324Z,14.27
2022-09-05T20:22:05.504Z,8.70
2022-09-05T20:24:47.731Z,11.20
2022-09-05T20:27:16.835Z,9.40
2022-09-05T20:29:55.747Z,11.68
2022-09-05T20:32:27.742Z,12.77
2022-09-05T20:37:50.355Z,12.07
2022-09-05T20:43:17.214Z,10.73
2022-09-05T20:43:31.552Z,8.50
2022-09-05T20:43:52.377Z,8.18
2022-09-05T20:51:26.330Z,10.20
2022-09-05T20:54:06.556Z,6.40
2022-09-05T20:54:28.652Z,10.73
2022-09-05T20:55:38.559Z,16.63
2022-09-05T20:58:10.183Z,8.93
2022-09-05T21:00:38.265Z,7.82
2022-09-05T21:03:08.807Z,7.90
2022-09-05T21:05:39.409Z,9.32
2022-09-05T21:08:19.561Z,4.70
2022-09-05T21:10:55.087Z,4.07
2022-09-05T21:13:22.850Z,7.95
2022-09-05T21:15:53.047Z,10.63
2022-09-05T21:18:22.565Z,14.25
2022-09-05T21:21:28.104Z,5.97
2022-09-05T21:24:16.924Z,4.88
2022-09-05T21:26:46.517Z,6.55
2022-09-05T21:29:13.732Z,6.70
2022-09-05T21:31:44.119Z,11.30
2022-09-05T21:34:32.308Z,10.15
2022-09-05T21:37:07.064Z,7.75
2022-09-05T21:40:00.456Z,11.95
2022-09-05T21:46:00.541Z,11.10
2022-09-05T21:47:39.906Z,10.63
2022-09-05T21:48:15.718Z,16.30
2022-09-05T21:50:48.922Z,14.60
2022-09-05T21:55:19.517Z,16.38
2022-09-05T21:59:27.562Z,16.30
2022-09-05T21:59:29.239Z,15.23
2022-09-05T22:02:00.342Z,18.48
2022-09-05T22:04:28.028Z,18.27
2022-09-05T22:06:57.519Z,16.75
2022-09-05T22:09:24.916Z,16.00
2022-09-05T22:11:52.429Z,11.15
2022-09-05T22:14:20.428Z,9.57
2022-09-05T22:16:50.263Z,22.08
2022-09-05T22:19:22.653Z,16.70
2022-09-05T22:21:51.887Z,8.23
2022-09-05T22:24:19.511Z,11.82
2022-09-05T22:27:11.602Z,12.70
2022-09-05T22:29:40.123Z,8.25
2022-09-05T22:32:07.978Z,10.52
2022-09-05T22:34:35.428Z,5.20
2022-09-05T22:37:02.651Z,9.00
2022-09-05T22:39:37.782Z,10.30
2022-09-05T22:42:10.042Z,20.13
2022-09-05T22:44:38.910Z,10.65
2022-09-05T22:47:06.696Z,12.57
2022-09-05T22:49:36.372Z,8.30
2022-09-05T22:52:08.113Z,10.60
2022-09-05T22:54:35.883Z,13.80
2022-09-05T22:57:04.431Z,10.35
2022-09-05T22:59:31.921Z,9.73
2022-09-05T23:01:59.265Z,13.77
2022-09-05T23:04:26.689Z,6.18
2022-09-05T23:06:54.004Z,6.57
2022-09-05T23:09:21.318Z,7.93
2022-09-05T23:11:48.539Z,8.50
2022-09-05T23:14:15.848Z,8.45
2022-09-05T23:16:43.243Z,10.57
2022-09-05T23:19:10.493Z,11.73
2022-09-05T23:21:37.786Z,13.35
2022-09-05T23:24:05.175Z,7.43
2022-09-05T23:26:32.474Z,9.90
2022-09-05T23:28:59.713Z,9.30
2022-09-05T23:31:26.991Z,10.55
2022-09-05T23:33:57.916Z,11.77
2022-09-05T23:36:25.333Z,9.88
2022-09-05T23:38:52.569Z,8.45
2022-09-05T23:41:19.948Z,6.47
2022-09-05T23:43:47.674Z,7.35
2022-09-05T23:46:15.233Z,10.48
2022-09-05T23:48:42.568Z,12.38
2022-09-05T23:51:11.287Z,9.35
2022-09-05T23:53:38.612Z,12.48
2022-09-05T23:56:06.906Z,9.63
2022-09-05T23:58:35.406Z,10.90
